createdAt,value
2023-04-02T00:00:41.393Z,91927.00
2023-04-02T00:01:41.399Z,91927.00
2023-04-02T00:02:41.403Z,91931.00
2023-04-02T00:03:41.464Z,91931.00
2023-04-02T00:04:41.358Z,91937.00
2023-04-02T00:05:41.342Z,91935.00
2023-04-02T00:06:41.332Z,91935.00
2023-04-02T00:07:41.359Z,91933.00
2023-04-02T00:08:41.383Z,91933.00
2023-04-02T00:09:41.422Z,91933.00
2023-04-02T00:10:41.452Z,91931.00
2023-04-02T00:11:41.466Z,91935.00
2023-04-02T00:12:41.520Z,91931.00
2023-04-02T00:13:41.559Z,91931.00
2023-04-02T00:14:41.605Z,91931.00
2023-04-02T00:15:41.654Z,91931.00
2023-04-02T00:16:41.786Z,91929.00
2023-04-02T00:17:41.763Z,91929.00
2023-04-02T00:18:41.796Z,91923.00
2023-04-02T00:19:41.852Z,91922.00
2023-04-02T00:20:41.845Z,91923.00
2023-04-02T00:21:41.864Z,91920.00
2023-04-02T00:22:41.897Z,91920.00
2023-04-02T00:23:41.917Z,91918.00
2023-04-02T00:24:41.934Z,91914.00
2023-04-02T00:25:41.964Z,91912.00
2023-04-02T00:26:41.993Z,91914.00
2023-04-02T00:27:42.038Z,91912.00
2023-04-02T00:28:42.104Z,91914.00
2023-04-02T00:29:42.156Z,91916.00
2023-04-02T00:30:42.215Z,91916.00
2023-04-02T00:31:42.323Z,91918.00
2023-04-02T00:32:42.348Z,91916.00
2023-04-02T00:33:42.352Z,91920.00
2023-04-02T00:34:42.393Z,91920.00
2023-04-02T00:35:42.448Z,91920.00
2023-04-02T00:36:42.449Z,91920.00
2023-04-02T00:37:42.476Z,91922.00
2023-04-02T00:38:42.518Z,91922.00
2023-04-02T00:39:42.547Z,91922.00
2023-04-02T00:40:42.563Z,91922.00
2023-04-02T00:41:42.570Z,91922.00
2023-04-02T00:42:42.594Z,91920.00
2023-04-02T00:43:42.586Z,91923.00
2023-04-02T00:44:42.584Z,91922.00
2023-04-02T00:45:42.636Z,91922.00
2023-04-02T00:46:42.638Z,91922.00
2023-04-02T00:47:42.715Z,91918.00
2023-04-02T00:48:42.687Z,91918.00
2023-04-02T00:49:42.705Z,91916.00
2023-04-02T00:50:42.714Z,91918.00
2023-04-02T00:51:42.684Z,91918.00
2023-04-02T00:52:42.685Z,91918.00
2023-04-02T00:53:42.713Z,91918.00
2023-04-02T00:54:42.728Z,91918.00
2023-04-02T00:55:42.741Z,91920.00
2023-04-02T00:56:42.764Z,91914.00
2023-04-02T00:57:42.770Z,91918.00
2023-04-02T00:58:42.805Z,91920.00
2023-04-02T00:59:42.846Z,91920.00
2023-04-02T01:00:42.847Z,91920.00
2023-04-02T01:01:42.939Z,91920.00
2023-04-02T01:02:42.892Z,91918.00
2023-04-02T01:03:42.985Z,91918.00
2023-04-02T01:04:42.814Z,91920.00
2023-04-02T01:05:42.838Z,91918.00
2023-04-02T01:06:42.869Z,91922.00
2023-04-02T01:07:42.906Z,91922.00
2023-04-02T01:08:42.926Z,91922.00
2023-04-02T01:09:42.956Z,91920.00
2023-04-02T01:10:42.965Z,91920.00
2023-04-02T01:11:42.990Z,91925.00
2023-04-02T01:12:43.013Z,91923.00
2023-04-02T01:13:43.030Z,91923.00
2023-04-02T01:14:43.065Z,91925.00
2023-04-02T01:15:43.147Z,91923.00
2023-04-02T01:16:43.104Z,91929.00
2023-04-02T01:17:43.207Z,91927.00
2023-04-02T01:18:43.138Z,91931.00
2023-04-02T01:19:43.166Z,91929.00
2023-04-02T01:20:43.181Z,91931.00
2023-04-02T01:21:43.216Z,91931.00
2023-04-02T01:22:43.260Z,91933.00
2023-04-02T01:23:43.280Z,91933.00
2023-04-02T01:24:43.310Z,91935.00
2023-04-02T01:25:43.353Z,91933.00
2023-04-02T01:26:43.373Z,91935.00
2023-04-02T01:27:43.388Z,91933.00
2023-04-02T01:28:43.420Z,91937.00
2023-04-02T01:29:43.474Z,91937.00
2023-04-02T01:30:43.535Z,91937.00
2023-04-02T01:31:43.694Z,91939.00
2023-04-02T01:32:43.682Z,91939.00
2023-04-02T01:33:43.634Z,91941.00
2023-04-02T01:34:43.607Z,91941.00
2023-04-02T01:35:43.622Z,91943.00
2023-04-02T01:36:43.598Z,91947.00
2023-04-02T01:37:43.568Z,91945.00
2023-04-02T01:38:43.580Z,91945.00
2023-04-02T01:39:43.561Z,91949.00
2023-04-02T01:40:43.586Z,91947.00
2023-04-02T01:41:43.643Z,91947.00
2023-04-02T01:42:43.704Z,91947.00
2023-04-02T01:43:43.741Z,91951.00
2023-04-02T01:44:43.802Z,91951.00
2023-04-02T01:45:43.847Z,91951.00
2023-04-02T01:46:43.945Z,91953.00
2023-04-02T01:47:44.005Z,91953.00
2023-04-02T01:48:43.972Z,91953.00
2023-04-02T01:49:44.012Z,91953.00
2023-04-02T01:50:44.055Z,91955.00
2023-04-02T01:51:44.089Z,91955.00
2023-04-02T01:52:44.124Z,91955.00
2023-04-02T01:53:44.180Z,91959.00
2023-04-02T01:54:44.242Z,91957.00
2023-04-02T01:55:44.297Z,91957.00
2023-04-02T01:56:44.326Z,91955.00
2023-04-02T01:57:44.377Z,91955.00
2023-04-02T01:58:44.387Z,91955.00
2023-04-02T01:59:44.430Z,91955.00
2023-04-02T02:00:44.512Z,91957.00
2023-04-02T02:01:44.528Z,91957.00
2023-04-02T02:02:44.625Z,91957.00
2023-04-02T02:03:44.525Z,91955.00
2023-04-02T02:04:44.514Z,91959.00
2023-04-02T02:05:44.517Z,91961.00
2023-04-02T02:06:44.542Z,91961.00
2023-04-02T02:07:44.580Z,91961.00
2023-04-02T02:08:44.621Z,91967.00
2023-04-02T02:09:44.655Z,91967.00
2023-04-02T02:10:44.704Z,91967.00
2023-04-02T02:11:44.727Z,91969.00
2023-04-02T02:12:44.738Z,91969.00
2023-04-02T02:13:44.732Z,91969.00
2023-04-02T02:14:44.707Z,91969.00
2023-04-02T02:15:44.698Z,91970.00
2023-04-02T02:16:44.858Z,91972.00
2023-04-02T02:17:44.840Z,91970.00
2023-04-02T02:18:44.743Z,91970.00
2023-04-02T02:19:44.773Z,91974.00
2023-04-02T02:20:44.786Z,91976.00
2023-04-02T02:21:44.843Z,91980.00
2023-04-02T02:22:44.812Z,91980.00
2023-04-02T02:23:44.821Z,91982.00
2023-04-02T02:24:44.814Z,91982.00
2023-04-02T02:25:44.783Z,91984.00
2023-04-02T02:26:44.809Z,91988.00
2023-04-02T02:27:44.850Z,91988.00
2023-04-02T02:28:44.866Z,91988.00
2023-04-02T02:29:44.882Z,91988.00
2023-04-02T02:30:44.908Z,91988.00
2023-04-02T02:31:44.995Z,91990.00
2023-04-02T02:32:44.991Z,91990.00
2023-04-02T02:33:44.973Z,91990.00
2023-04-02T02:34:44.985Z,91988.00
2023-04-02T02:35:45.029Z,91992.00
2023-04-02T02:36:45.034Z,91990.00
2023-04-02T02:37:45.067Z,91990.00
2023-04-02T02:38:45.057Z,91990.00
2023-04-02T02:39:45.071Z,91988.00
2023-04-02T02:40:45.070Z,91986.00
2023-04-02T02:41:45.064Z,91988.00
2023-04-02T02:42:45.047Z,91990.00
2023-04-02T02:43:45.034Z,91994.00
2023-04-02T02:44:45.051Z,91996.00
2023-04-02T02:45:45.103Z,91996.00
2023-04-02T02:46:45.039Z,91998.00
2023-04-02T02:47:45.072Z,92000.00
2023-04-02T02:48:45.063Z,92000.00
2023-04-02T02:49:45.091Z,92004.00
2023-04-02T02:50:45.097Z,92006.00
2023-04-02T02:51:45.111Z,92008.00
2023-04-02T02:52:45.097Z,92008.00
2023-04-02T02:53:45.113Z,92010.00
2023-04-02T02:54:45.154Z,92012.00
2023-04-02T02:55:45.185Z,92012.00
2023-04-02T02:56:45.208Z,92012.00
2023-04-02T02:57:45.204Z,92012.00
2023-04-02T02:58:45.204Z,92012.00
2023-04-02T02:59:45.203Z,92014.00
2023-04-02T03:00:45.202Z,92016.00
2023-04-02T03:01:45.256Z,92016.00
2023-04-02T03:02:45.388Z,92018.00
2023-04-02T03:03:45.505Z,92016.00
2023-04-02T03:04:45.182Z,92018.00
2023-04-02T03:05:45.162Z,92018.00
2023-04-02T03:06:45.145Z,92018.00
2023-04-02T03:07:45.149Z,92016.00
2023-04-02T03:08:45.132Z,92018.00
2023-04-02T03:09:45.120Z,92020.00
2023-04-02T03:10:45.108Z,92020.00
2023-04-02T03:11:45.085Z,92018.00
2023-04-02T03:12:45.075Z,92020.00
2023-04-02T03:13:45.074Z,92022.00
2023-04-02T03:14:45.084Z,92022.00
2023-04-02T03:15:45.094Z,92024.00
2023-04-02T03:16:45.051Z,92020.00
2023-04-02T03:17:45.130Z,92022.00
2023-04-02T03:18:45.061Z,92022.00
2023-04-02T03:19:45.058Z,92024.00
2023-04-02T03:20:45.996Z,92024.00
2023-04-02T03:21:45.134Z,92024.00
2023-04-02T03:22:45.077Z,92024.00
2023-04-02T03:23:45.083Z,92024.00
2023-04-02T03:24:45.089Z,92024.00
2023-04-02T03:25:45.095Z,92024.00
2023-04-02T03:26:45.124Z,92027.00
2023-04-02T03:27:45.132Z,92027.00
2023-04-02T03:28:45.133Z,92027.00
2023-04-02T03:29:45.124Z,92025.00
2023-04-02T03:30:45.165Z,92025.00
2023-04-02T03:31:45.164Z,92025.00
2023-04-02T03:32:45.191Z,92025.00
2023-04-02T03:33:45.172Z,92031.00
2023-04-02T03:34:45.170Z,92027.00
2023-04-02T03:35:45.197Z,92031.00
2023-04-02T03:36:45.179Z,92033.00
2023-04-02T03:37:45.187Z,92033.00
2023-04-02T03:38:45.195Z,92035.00
2023-04-02T03:39:45.203Z,92035.00
2023-04-02T03:40:45.198Z,92039.00
2023-04-02T03:41:45.186Z,92037.00
2023-04-02T03:42:45.191Z,92037.00
2023-04-02T03:43:45.200Z,92041.00
2023-04-02T03:44:45.225Z,92041.00
2023-04-02T03:45:45.254Z,92037.00
2023-04-02T03:46:45.314Z,92037.00
2023-04-02T03:47:45.317Z,92039.00
2023-04-02T03:48:45.306Z,92039.00
2023-04-02T03:49:45.362Z,92039.00
2023-04-02T03:50:45.405Z,92043.00
2023-04-02T03:51:45.403Z,92043.00
2023-04-02T03:52:45.406Z,92045.00
2023-04-02T03:53:45.424Z,92045.00
2023-04-02T03:54:54.138Z,92045.00
2023-04-02T03:55:46.430Z,92045.00
2023-04-02T03:56:45.417Z,92047.00
2023-04-02T03:57:45.414Z,92049.00
2023-04-02T03:58:45.401Z,92045.00
2023-04-02T03:59:47.174Z,92045.00
2023-04-02T04:00:45.380Z,92045.00
2023-04-02T04:01:45.379Z,92049.00
2023-04-02T04:02:45.397Z,92051.00
2023-04-02T04:03:45.371Z,92049.00
2023-04-02T04:04:45.327Z,92055.00
2023-04-02T04:05:45.318Z,92055.00
2023-04-02T04:06:45.320Z,92055.00
2023-04-02T04:07:45.328Z,92062.00
2023-04-02T04:08:45.305Z,92064.00
2023-04-02T04:09:45.286Z,92066.00
2023-04-02T04:10:45.385Z,92066.00
2023-04-02T04:11:45.367Z,92064.00
2023-04-02T04:12:45.373Z,92066.00
2023-04-02T04:13:45.418Z,92068.00
2023-04-02T04:14:45.477Z,92072.00
2023-04-02T04:15:45.486Z,92074.00
2023-04-02T04:16:45.559Z,92074.00
2023-04-02T04:17:45.604Z,92076.00
2023-04-02T04:18:45.546Z,92076.00
2023-04-02T04:19:45.668Z,92078.00
2023-04-02T04:20:45.585Z,92080.00
2023-04-02T04:21:45.591Z,92082.00
2023-04-02T04:22:45.587Z,92084.00
2023-04-02T04:23:45.607Z,92084.00
2023-04-02T04:24:45.598Z,92086.00
2023-04-02T04:25:45.586Z,92084.00
2023-04-02T04:26:45.597Z,92088.00
2023-04-02T04:27:45.603Z,92082.00
2023-04-02T04:28:45.592Z,92090.00
2023-04-02T04:29:45.653Z,92092.00
2023-04-02T04:30:45.601Z,92090.00
2023-04-02T04:31:45.626Z,92092.00
2023-04-02T04:32:45.634Z,92092.00
2023-04-02T04:33:45.574Z,92094.00
2023-04-02T04:34:45.558Z,92092.00
2023-04-02T04:35:45.583Z,92098.00
2023-04-02T04:36:45.547Z,92096.00
2023-04-02T04:37:45.533Z,92098.00
2023-04-02T04:38:45.521Z,92100.00
2023-04-02T04:39:45.521Z,92102.00
2023-04-02T04:40:45.509Z,92104.00
2023-04-02T04:41:45.492Z,92109.00
2023-04-02T04:42:45.494Z,92104.00
2023-04-02T04:43:45.492Z,92104.00
2023-04-02T04:44:45.478Z,92106.00
2023-04-02T04:45:45.510Z,92106.00
2023-04-02T04:46:45.440Z,92108.00
2023-04-02T04:47:45.483Z,92109.00
2023-04-02T04:48:45.420Z,92111.00
2023-04-02T04:49:45.408Z,92113.00
2023-04-02T04:50:45.395Z,92115.00
2023-04-02T04:51:45.391Z,92117.00
2023-04-02T04:52:45.385Z,92119.00
2023-04-02T04:53:45.388Z,92121.00
2023-04-02T04:54:45.366Z,92123.00
2023-04-02T04:55:45.367Z,92125.00
2023-04-02T04:56:45.358Z,92125.00
2023-04-02T04:57:45.362Z,92127.00
2023-04-02T04:58:45.350Z,92127.00
2023-04-02T04:59:45.424Z,92127.00
2023-04-02T05:00:45.336Z,92129.00
2023-04-02T05:01:45.378Z,92131.00
2023-04-02T05:02:45.346Z,92129.00
2023-04-02T05:03:45.306Z,92129.00
2023-04-02T05:04:45.356Z,92135.00
2023-04-02T05:05:45.292Z,92137.00
2023-04-02T05:06:45.281Z,92137.00
2023-04-02T05:07:45.279Z,92141.00
2023-04-02T05:08:45.268Z,92141.00
2023-04-02T05:09:45.267Z,92141.00
2023-04-02T05:10:45.262Z,92141.00
2023-04-02T05:11:45.263Z,92143.00
2023-04-02T05:12:45.256Z,92143.00
2023-04-02T05:13:45.246Z,92143.00
2023-04-02T05:14:45.233Z,92145.00
2023-04-02T05:15:45.242Z,92143.00
2023-04-02T05:16:45.217Z,92143.00
2023-04-02T05:17:45.229Z,92143.00
2023-04-02T05:18:45.194Z,92141.00
2023-04-02T05:19:45.177Z,92141.00
2023-04-02T05:20:45.172Z,92143.00
2023-04-02T05:21:45.170Z,92143.00
2023-04-02T05:22:45.160Z,92147.00
2023-04-02T05:23:45.144Z,92145.00
2023-04-02T05:24:45.130Z,92151.00
2023-04-02T05:25:45.108Z,92151.00
2023-04-02T05:26:45.101Z,92153.00
2023-04-02T05:27:45.085Z,92151.00
2023-04-02T05:28:45.080Z,92153.00
2023-04-02T05:29:45.068Z,92155.00
2023-04-02T05:30:45.067Z,92155.00
2023-04-02T05:31:45.100Z,92157.00
2023-04-02T05:32:45.110Z,92155.00
2023-04-02T05:33:45.079Z,92155.00
2023-04-02T05:34:45.061Z,92157.00
2023-04-02T05:35:45.090Z,92159.00
2023-04-02T05:36:45.051Z,92159.00
2023-04-02T05:37:45.045Z,92157.00
2023-04-02T05:38:45.031Z,92162.00
2023-04-02T05:39:45.025Z,92160.00
2023-04-02T05:40:45.014Z,92160.00
2023-04-02T05:41:45.015Z,92164.00
2023-04-02T05:42:44.998Z,92166.00
2023-04-02T05:43:44.995Z,92168.00
2023-04-02T05:44:44.981Z,92168.00
2023-04-02T05:45:44.978Z,92164.00
2023-04-02T05:46:45.014Z,92168.00
2023-04-02T05:47:45.015Z,92170.00
2023-04-02T05:48:44.950Z,92168.00
2023-04-02T05:49:44.940Z,92166.00
2023-04-02T05:50:44.930Z,92170.00
2023-04-02T05:51:44.938Z,92168.00
2023-04-02T05:52:44.924Z,92170.00
2023-04-02T05:53:44.931Z,92168.00
2023-04-02T05:54:44.921Z,92168.00
2023-04-02T05:55:44.922Z,92168.00
2023-04-02T05:56:44.904Z,92170.00
2023-04-02T05:57:54.837Z,92170.00
2023-04-02T05:58:45.979Z,92170.00
2023-04-02T05:59:44.875Z,92170.00
2023-04-02T06:00:44.858Z,92170.00
2023-04-02T06:01:44.960Z,92170.00
2023-04-02T06:02:44.860Z,92170.00
2023-04-02T06:03:44.925Z,92170.00
2023-04-02T06:04:44.814Z,92170.00
2023-04-02T06:05:44.814Z,92172.00
2023-04-02T06:06:44.813Z,92174.00
2023-04-02T06:07:44.797Z,92174.00
2023-04-02T06:08:44.782Z,92176.00
2023-04-02T06:09:44.775Z,92174.00
2023-04-02T06:10:44.755Z,92176.00
2023-04-02T06:11:44.736Z,92178.00
2023-04-02T06:12:44.727Z,92178.00
2023-04-02T06:13:44.711Z,92180.00
2023-04-02T06:14:44.692Z,92180.00
2023-04-02T06:15:47.158Z,92178.00
2023-04-02T06:16:44.777Z,92178.00
2023-04-02T06:17:44.684Z,92178.00
2023-04-02T06:18:44.637Z,92178.00
2023-04-02T06:19:44.643Z,92176.00
2023-04-02T06:20:44.624Z,92176.00
2023-04-02T06:21:44.608Z,92176.00
2023-04-02T06:22:44.617Z,92180.00
2023-04-02T06:23:44.588Z,92178.00
2023-04-02T06:24:44.567Z,92180.00
2023-04-02T06:25:44.551Z,92180.00
2023-04-02T06:26:44.580Z,92182.00
2023-04-02T06:27:44.513Z,92182.00
2023-04-02T06:28:44.497Z,92182.00
2023-04-02T06:29:44.484Z,92182.00
2023-04-02T06:30:44.481Z,92180.00
2023-04-02T06:31:44.443Z,92182.00
2023-04-02T06:32:44.525Z,92182.00
2023-04-02T06:33:44.408Z,92182.00
2023-04-02T06:34:44.384Z,92184.00
2023-04-02T06:35:44.379Z,92186.00
2023-04-02T06:36:44.365Z,92186.00
2023-04-02T06:37:44.352Z,92186.00
2023-04-02T06:38:44.341Z,92188.00
2023-04-02T06:39:44.313Z,92190.00
2023-04-02T06:40:44.302Z,92190.00
2023-04-02T06:41:44.284Z,92190.00
2023-04-02T06:42:44.270Z,92188.00
2023-04-02T06:43:44.247Z,92188.00
2023-04-02T06:44:44.236Z,92188.00
2023-04-02T06:45:44.228Z,92188.00
2023-04-02T06:46:44.206Z,92190.00
2023-04-02T06:47:44.263Z,92192.00
2023-04-02T06:48:44.188Z,92192.00
2023-04-02T06:49:44.182Z,92190.00
2023-04-02T06:50:44.153Z,92188.00
2023-04-02T06:51:44.137Z,92190.00
2023-04-02T06:52:44.122Z,92188.00
2023-04-02T06:53:44.139Z,92184.00
2023-04-02T06:54:44.143Z,92190.00
2023-04-02T06:55:44.088Z,92192.00
2023-04-02T06:56:44.059Z,92190.00
2023-04-02T06:57:44.039Z,92192.00
2023-04-02T06:58:44.027Z,92192.00
2023-04-02T06:59:44.000Z,92192.00
2023-04-02T07:00:43.976Z,92192.00
2023-04-02T07:01:44.008Z,92194.00
2023-04-02T07:02:43.936Z,92194.00
2023-04-02T07:03:43.904Z,92194.00
2023-04-02T07:04:43.897Z,92194.00
2023-04-02T07:05:43.866Z,92192.00
2023-04-02T07:06:43.825Z,92192.00
2023-04-02T07:07:43.837Z,92190.00
2023-04-02T07:08:43.791Z,92192.00
2023-04-02T07:09:43.840Z,92192.00
2023-04-02T07:10:43.742Z,92190.00
2023-04-02T07:11:43.724Z,92190.00
2023-04-02T07:12:43.706Z,92192.00
2023-04-02T07:13:43.685Z,92188.00
2023-04-02T07:14:43.649Z,92190.00
2023-04-02T07:15:43.639Z,92188.00
2023-04-02T07:16:43.610Z,92190.00
2023-04-02T07:17:43.690Z,92188.00
2023-04-02T07:18:43.564Z,92192.00
2023-04-02T07:19:43.535Z,92192.00
2023-04-02T07:20:43.568Z,92194.00
2023-04-02T07:21:43.493Z,92194.00
2023-04-02T07:22:43.470Z,92194.00
2023-04-02T07:23:43.453Z,92194.00
2023-04-02T07:24:43.434Z,92198.00
2023-04-02T07:25:43.409Z,92196.00
2023-04-02T07:26:43.392Z,92198.00
2023-04-02T07:27:43.371Z,92198.00
2023-04-02T07:28:43.354Z,92198.00
2023-04-02T07:29:43.342Z,92196.00
2023-04-02T07:30:43.318Z,92196.00
2023-04-02T07:31:43.409Z,92196.00
2023-04-02T07:32:43.314Z,92194.00
2023-04-02T07:33:43.246Z,92196.00
2023-04-02T07:34:43.238Z,92194.00
2023-04-02T07:35:43.243Z,92196.00
2023-04-02T07:36:43.189Z,92194.00
2023-04-02T07:37:43.175Z,92194.00
2023-04-02T07:38:43.162Z,92198.00
2023-04-02T07:39:43.129Z,92196.00
2023-04-02T07:40:43.108Z,92196.00
2023-04-02T07:41:43.107Z,92196.00
2023-04-02T07:42:43.074Z,92198.00
2023-04-02T07:43:43.111Z,92196.00
2023-04-02T07:44:43.154Z,92196.00
2023-04-02T07:45:43.185Z,92196.00
2023-04-02T07:46:43.261Z,92194.00
2023-04-02T07:47:43.324Z,92196.00
2023-04-02T07:48:43.301Z,92194.00
2023-04-02T07:49:43.331Z,92196.00
2023-04-02T07:50:43.375Z,92196.00
2023-04-02T07:51:43.399Z,92200.00
2023-04-02T07:52:43.438Z,92198.00
2023-04-02T07:53:43.473Z,92196.00
2023-04-02T07:54:43.487Z,92194.00
2023-04-02T07:55:43.514Z,92194.00
2023-04-02T07:56:43.549Z,92196.00
2023-04-02T07:57:46.381Z,92194.00
2023-04-02T07:58:43.552Z,92194.00
2023-04-02T07:59:43.524Z,92190.00
2023-04-02T08:00:43.509Z,92190.00
2023-04-02T08:01:43.523Z,92190.00
2023-04-02T08:02:43.458Z,92192.00
2023-04-02T08:03:43.481Z,92190.00
2023-04-02T08:04:43.383Z,92188.00
2023-04-02T08:05:43.372Z,92188.00
2023-04-02T08:06:43.359Z,92190.00
2023-04-02T08:07:43.326Z,92188.00
2023-04-02T08:08:43.311Z,92190.00
2023-04-02T08:09:43.283Z,92188.00
2023-04-02T08:10:43.267Z,92190.00
2023-04-02T08:11:43.261Z,92188.00
2023-04-02T08:12:43.229Z,92188.00
2023-04-02T08:13:43.244Z,92194.00
2023-04-02T08:14:43.191Z,92196.00
2023-04-02T08:15:43.159Z,92194.00
2023-04-02T08:16:43.179Z,92196.00
2023-04-02T08:17:43.134Z,92196.00
2023-04-02T08:18:43.070Z,92198.00
2023-04-02T08:19:54.300Z,92196.00
2023-04-02T08:20:44.096Z,92198.00
2023-04-02T08:21:42.987Z,92196.00
2023-04-02T08:22:42.964Z,92196.00
2023-04-02T08:23:42.960Z,92198.00
2023-04-02T08:24:42.921Z,92198.00
2023-04-02T08:25:42.903Z,92198.00
2023-04-02T08:26:45.009Z,92198.00
2023-04-02T08:27:43.039Z,92198.00
2023-04-02T08:28:43.030Z,92202.00
2023-04-02T08:29:43.047Z,92202.00
2023-04-02T08:30:43.094Z,92202.00
2023-04-02T08:31:43.096Z,92198.00
2023-04-02T08:32:43.192Z,92200.00
2023-04-02T08:33:43.168Z,92200.00
2023-04-02T08:34:43.162Z,92198.00
2023-04-02T08:35:43.211Z,92200.00
2023-04-02T08:36:43.274Z,92204.00
2023-04-02T08:37:43.238Z,92202.00
2023-04-02T08:38:43.271Z,92200.00
2023-04-02T08:39:43.300Z,92204.00
2023-04-02T08:40:43.318Z,92202.00
2023-04-02T08:41:43.351Z,92202.00
2023-04-02T08:42:43.381Z,92202.00
2023-04-02T08:43:43.417Z,92202.00
2023-04-02T08:44:43.447Z,92204.00
2023-04-02T08:45:43.612Z,92204.00
2023-04-02T08:46:43.505Z,92204.00
2023-04-02T08:47:43.554Z,92202.00
2023-04-02T08:48:43.567Z,92202.00
2023-04-02T08:49:43.597Z,92200.00
2023-04-02T08:50:43.628Z,92202.00
2023-04-02T08:51:43.657Z,92202.00
2023-04-02T08:52:43.684Z,92202.00
2023-04-02T08:53:43.722Z,92202.00
2023-04-02T08:54:43.792Z,92202.00
2023-04-02T08:55:43.812Z,92200.00
2023-04-02T08:56:43.802Z,92200.00
2023-04-02T08:57:43.845Z,92200.00
2023-04-02T08:58:43.870Z,92198.00
2023-04-02T08:59:43.897Z,92200.00
2023-04-02T09:00:43.922Z,92198.00
2023-04-02T09:01:44.073Z,92200.00
2023-04-02T09:02:44.022Z,92202.00
2023-04-02T09:03:44.022Z,92198.00
2023-04-02T09:04:44.073Z,92200.00
2023-04-02T09:05:44.073Z,92200.00
2023-04-02T09:06:44.125Z,92202.00
2023-04-02T09:07:44.130Z,92202.00
2023-04-02T09:08:44.159Z,92200.00
2023-04-02T09:09:44.180Z,92202.00
2023-04-02T09:10:44.223Z,92204.00
2023-04-02T09:11:44.236Z,92204.00
2023-04-02T09:12:44.263Z,92204.00
2023-04-02T09:13:44.291Z,92204.00
2023-04-02T09:14:44.333Z,92204.00
2023-04-02T09:15:44.363Z,92204.00
2023-04-02T09:16:44.371Z,92206.00
2023-04-02T09:17:53.610Z,92206.00
2023-04-02T09:18:45.477Z,92208.00
2023-04-02T09:19:44.357Z,92210.00
2023-04-02T09:20:44.336Z,92208.00
2023-04-02T09:21:44.317Z,92211.00
2023-04-02T09:22:44.297Z,92210.00
2023-04-02T09:23:44.295Z,92211.00
2023-04-02T09:24:44.273Z,92211.00
2023-04-02T09:25:48.491Z,92211.00
2023-04-02T09:26:45.238Z,92211.00
2023-04-02T09:27:44.224Z,92211.00
2023-04-02T09:28:44.204Z,92211.00
2023-04-02T09:29:44.203Z,92211.00
2023-04-02T09:30:44.177Z,92211.00
2023-04-02T09:31:44.179Z,92213.00
2023-04-02T09:32:44.160Z,92217.00
2023-04-02T09:33:44.141Z,92215.00
2023-04-02T09:34:44.095Z,92217.00
2023-04-02T09:35:44.273Z,92221.00
2023-04-02T09:36:44.074Z,92221.00
2023-04-02T09:37:44.047Z,92219.00
2023-04-02T09:38:44.019Z,92217.00
2023-04-02T09:39:44.005Z,92219.00
2023-04-02T09:40:43.996Z,92219.00
2023-04-02T09:41:48.196Z,92221.00
2023-04-02T09:42:44.961Z,92227.00
2023-04-02T09:43:43.944Z,92223.00
2023-04-02T09:44:43.928Z,92225.00
2023-04-02T09:45:43.905Z,92223.00
2023-04-02T09:46:43.915Z,92227.00
2023-04-02T09:47:43.897Z,92225.00
2023-04-02T09:48:43.955Z,92225.00
2023-04-02T09:49:43.843Z,92227.00
2023-04-02T09:50:43.832Z,92227.00
2023-04-02T09:51:43.801Z,92229.00
2023-04-02T09:52:43.769Z,92231.00
2023-04-02T09:53:43.757Z,92227.00
2023-04-02T09:54:43.733Z,92231.00
2023-04-02T09:55:43.708Z,92231.00
2023-04-02T09:56:43.742Z,92233.00
2023-04-02T09:57:43.770Z,92235.00
2023-04-02T09:58:43.748Z,92235.00
2023-04-02T09:59:43.744Z,92235.00
2023-04-02T10:00:44.036Z,92233.00
2023-04-02T10:01:43.793Z,92233.00
2023-04-02T10:02:43.797Z,92233.00
2023-04-02T10:03:43.769Z,92233.00
2023-04-02T10:04:43.841Z,92231.00
2023-04-02T10:05:44.023Z,92231.00
2023-04-02T10:06:43.798Z,92233.00
2023-04-02T10:07:43.905Z,92233.00
2023-04-02T10:08:43.805Z,92235.00
2023-04-02T10:09:43.818Z,92235.00
2023-04-02T10:10:43.836Z,92235.00
2023-04-02T10:11:46.701Z,92235.00
2023-04-02T10:12:43.821Z,92237.00
2023-04-02T10:13:43.815Z,92239.00
2023-04-02T10:14:43.785Z,92239.00
2023-04-02T10:15:43.758Z,92237.00
2023-04-02T10:16:43.812Z,92239.00
2023-04-02T10:17:43.729Z,92239.00
2023-04-02T10:18:43.690Z,92233.00
2023-04-02T10:19:43.679Z,92237.00
2023-04-02T10:20:50.964Z,92235.00
2023-04-02T10:21:44.618Z,92235.00
2023-04-02T10:22:43.589Z,92237.00
2023-04-02T10:23:43.602Z,92237.00
2023-04-02T10:24:43.540Z,92237.00
2023-04-02T10:25:43.519Z,92237.00
2023-04-02T10:26:43.502Z,92237.00
2023-04-02T10:27:43.487Z,92239.00
2023-04-02T10:28:43.455Z,92239.00
2023-04-02T10:29:43.439Z,92241.00
2023-04-02T10:30:43.455Z,92241.00
2023-04-02T10:31:43.400Z,92241.00
2023-04-02T10:32:43.441Z,92243.00
2023-04-02T10:33:43.376Z,92239.00
2023-04-02T10:34:43.416Z,92239.00
2023-04-02T10:35:43.348Z,92241.00
2023-04-02T10:36:43.308Z,92241.00
2023-04-02T10:37:43.296Z,92241.00
2023-04-02T10:38:43.266Z,92241.00
2023-04-02T10:39:43.264Z,92239.00
2023-04-02T10:40:43.281Z,92241.00
2023-04-02T10:41:43.294Z,92241.00
2023-04-02T10:42:43.300Z,92243.00
2023-04-02T10:43:43.318Z,92245.00
2023-04-02T10:44:43.333Z,92243.00
2023-04-02T10:45:43.389Z,92245.00
2023-04-02T10:46:43.523Z,92247.00
2023-04-02T10:47:43.424Z,92247.00
2023-04-02T10:48:43.391Z,92251.00
2023-04-02T10:49:43.482Z,92249.00
2023-04-02T10:50:43.418Z,92251.00
2023-04-02T10:51:43.427Z,92249.00
2023-04-02T10:52:43.455Z,92249.00
2023-04-02T10:53:43.468Z,92249.00
2023-04-02T10:54:43.476Z,92249.00
2023-04-02T10:55:43.489Z,92249.00
2023-04-02T10:56:50.665Z,92249.00
2023-04-02T10:57:44.500Z,92249.00
2023-04-02T10:58:43.468Z,92253.00
2023-04-02T10:59:43.453Z,92251.00
2023-04-02T11:00:43.424Z,92249.00
2023-04-02T11:01:43.435Z,92251.00
2023-04-02T11:02:43.435Z,92249.00
2023-04-02T11:03:43.487Z,92249.00
2023-04-02T11:04:43.322Z,92249.00
2023-04-02T11:05:43.326Z,92249.00
2023-04-02T11:06:43.279Z,92251.00
2023-04-02T11:07:43.251Z,92251.00
2023-04-02T11:08:43.226Z,92251.00
2023-04-02T11:09:43.198Z,92251.00
2023-04-02T11:10:43.169Z,92249.00
2023-04-02T11:11:43.162Z,92251.00
2023-04-02T11:12:43.184Z,92245.00
2023-04-02T11:13:43.195Z,92249.00
2023-04-02T11:14:43.219Z,92249.00
2023-04-02T11:15:43.257Z,92249.00
2023-04-02T11:16:44.784Z,92247.00
2023-04-02T11:17:43.394Z,92249.00
2023-04-02T11:18:43.285Z,92249.00
2023-04-02T11:19:43.306Z,92251.00
2023-04-02T11:20:43.437Z,92249.00
2023-04-02T11:21:57.263Z,92251.00
2023-04-02T11:22:44.314Z,92247.00
2023-04-02T11:23:43.294Z,92251.00
2023-04-02T11:24:43.258Z,92255.00
2023-04-02T11:25:43.230Z,92251.00
2023-04-02T11:26:43.198Z,92253.00
2023-04-02T11:27:43.167Z,92253.00
2023-04-02T11:28:43.135Z,92257.00
2023-04-02T11:29:43.107Z,92255.00
2023-04-02T11:30:43.069Z,92257.00
2023-04-02T11:31:43.113Z,92258.00
2023-04-02T11:32:43.238Z,92258.00
2023-04-02T11:33:45.378Z,92260.00
2023-04-02T11:34:42.984Z,92260.00
2023-04-02T11:35:42.984Z,92260.00
2023-04-02T11:36:42.953Z,92262.00
2023-04-02T11:37:42.924Z,92262.00
2023-04-02T11:38:42.894Z,92264.00
2023-04-02T11:39:42.883Z,92262.00
2023-04-02T11:40:42.858Z,92264.00
2023-04-02T11:41:42.829Z,92264.00
2023-04-02T11:42:42.811Z,92266.00
2023-04-02T11:43:42.804Z,92264.00
2023-04-02T11:44:42.782Z,92266.00